Time;durP1;ratioP1;P1;durP2;ratioP2;P2;SDS_P1;SDS_P2;PMS_P1;PMS_P2;Temp;Humidity;BMP_temperature;BMP_pressure;BME280_temperature;BME280_humidity;BME280_pressure;Samples;Min_cycle;Max_cycle;Signal;HPM_P1;HPM_P2
2022/09/20 00:01:11;;;;;;;1999.90;999.90;;;;;;;9.76;100.00;94797.22;6270857;22;20161;-58
2022/09/20 00:03:39;;;;;;;1999.90;999.90;;;;;;;9.74;100.00;94796.09;6270807;22;20162;-58
2022/09/20 00:06:06;;;;;;;1999.90;999.90;;;;;;;9.67;100.00;94801.66;6270828;22;20168;-60
2022/09/20 00:08:33;;;;;;;1999.90;999.90;;;;;;;9.62;100.00;94804.84;6245182;23;20697;-59
2022/09/20 00:11:05;;;;;;;1999.90;999.90;;;;;;;9.66;100.00;94794.66;6245373;23;20188;-59
2022/09/20 00:13:32;;;;;;;1999.90;999.90;;;;;;;9.69;100.00;94799.28;6245879;23;20153;-59
2022/09/20 00:15:59;;;;;;;1999.90;999.90;;;;;;;9.69;100.00;94794.59;6245588;23;20212;-59
2022/09/20 00:18:25;;;;;;;1999.90;999.90;;;;;;;9.61;100.00;94784.97;6245202;22;20224;-59
2022/09/20 00:20:51;;;;;;;1999.90;999.90;;;;;;;9.53;100.00;94775.38;6245222;22;20178;-59
2022/09/20 00:23:17;;;;;;;1999.90;999.90;;;;;;;9.54;100.00;94774.19;6245089;23;20181;-59
2022/09/20 00:25:43;;;;;;;1999.90;999.90;;;;;;;9.56;100.00;94774.56;6244840;23;20174;-58
2022/09/20 00:28:09;;;;;;;1999.90;999.90;;;;;;;9.59;100.00;94781.88;6245528;23;20212;-59
2022/09/20 00:30:35;;;;;;;1999.90;999.90;;;;;;;9.63;100.00;94774.44;6245312;23;20164;-58
2022/09/20 00:33:01;;;;;;;1999.90;999.90;;;;;;;9.63;100.00;94763.53;6244891;23;20168;-60
2022/09/20 00:35:28;;;;;;;1999.90;999.90;;;;;;;9.63;100.00;94774.44;6270471;22;20221;-58
2022/09/20 00:37:54;;;;;;;1999.90;999.90;;;;;;;9.69;100.00;94761.88;6245054;23;20157;-57
2022/09/20 00:40:21;;;;;;;1999.90;999.90;;;;;;;9.68;100.00;94759.56;6271421;22;20175;-56
2022/09/20 00:42:48;;;;;;;1999.90;999.90;;;;;;;9.71;100.00;94756.78;6246140;22;20171;-57
2022/09/20 00:45:25;;;;;;;1999.90;999.90;;;;;;;9.74;100.00;94753.25;6246182;22;20164;-58
2022/09/20 00:48:02;;;;;;;1999.90;999.90;;;;;;;9.73;100.00;94756.38;6272144;22;20178;-58
2022/09/20 00:50:39;;;;;;;1999.90;999.90;;;;;;;9.75;100.00;94751.28;6272120;22;20188;-59
2022/09/20 00:53:20;;;;;;;1999.90;999.90;;;;;;;9.77;100.00;94757.84;6271704;22;20183;-58
2022/09/20 00:56:14;;;;;;;1999.90;999.90;;;;;;;9.78;100.00;94753.97;6246306;23;20163;-59
2022/09/20 00:58:50;;;;;;;1999.90;999.90;;;;;;;9.76;100.00;94756.31;6230181;23;20175;-57
2022/09/20 01:01:16;;;;;;;1999.90;999.90;;;;;;;9.61;100.00;94754.22;6246291;23;20168;-58
2022/09/20 01:03:42;;;;;;;1999.90;999.90;;;;;;;9.57;100.00;94758.94;6246209;23;20173;-58
2022/09/20 01:06:10;;;;;;;1999.90;999.90;;;;;;;9.78;100.00;94756.69;6272278;22;20496;-58
2022/09/20 01:08:38;;;;;;;1999.90;999.90;;;;;;;9.82;100.00;94757.41;6271538;22;20199;-58
2022/09/20 01:11:04;;;;;;;1999.90;999.90;;;;;;;9.78;100.00;94753.97;6246261;23;20161;-57
2022/09/20 01:13:29;;;;;;;1999.90;999.90;;;;;;;9.74;100.00;94753.25;6246486;23;20169;-58
2022/09/20 01:15:58;;;;;;;1999.90;999.90;;;;;;;9.73;100.00;94751.69;6272146;22;20556;-58
2022/09/20 01:18:25;;;;;;;1999.90;999.90;;;;;;;9.71;100.00;94747.84;6271442;22;20251;-58
2022/09/20 01:20:51;;;;;;;1999.90;999.90;;;;;;;9.75;100.00;94749.34;6271920;22;20176;-59
2022/09/20 01:23:19;;;;;;;1999.90;999.90;;;;;;;9.74;100.00;94752.47;6245942;22;20168;-59
2022/09/20 01:26:07;;;;;;;1999.90;999.90;;;;;;;9.76;100.00;94739.19;6271708;22;20168;-58
2022/09/20 01:28:33;;;;;;;1999.90;999.90;;;;;;;9.79;100.00;94744.59;6271457;22;20239;-58
2022/09/20 01:31:24;;;;;;;1999.90;999.90;;;;;;;9.76;100.00;94744.63;6246620;23;20591;-58
2022/09/20 01:33:52;;;;;;;1999.90;999.90;;;;;;;9.71;100.00;94740.44;6246360;23;20164;-58
2022/09/20 01:36:36;;;;;;;1999.90;999.90;;;;;;;9.66;100.00;94737.41;6246372;23;20586;-58
2022/09/20 01:39:23;;;;;;;1999.90;999.90;;;;;;;9.58;100.00;94734.00;6246682;23;20209;-60
2022/09/20 01:42:04;;;;;;;1999.90;999.90;;;;;;;9.49;100.00;94733.78;6271923;22;20225;-58
2022/09/20 01:44:33;;;;;;;1999.90;999.90;;;;;;;9.48;100.00;94726.75;6246364;23;20559;-59
2022/09/20 01:47:16;;;;;;;1999.90;999.90;;;;;;;9.46;100.00;94725.63;6245835;23;20476;-59
2022/09/20 01:50:19;;;;;;;1999.90;999.90;;;;;;;9.47;100.00;94722.50;6245970;23;20188;-59
2022/09/20 01:53:13;;;;;;;1999.90;999.90;;;;;;;9.49;100.00;94722.88;6272136;22;20167;-59
2022/09/20 01:56:07;;;;;;;1999.90;999.90;;;;;;;9.46;100.00;94712.78;6271901;22;20270;-59
2022/09/20 01:59:00;;;;;;;1999.90;999.90;;;;;;;9.43;100.00;94721.00;6246390;23;20183;-59
2022/09/20 02:02:03;;;;;;;1999.90;999.90;;;;;;;9.43;100.00;94715.56;6271929;22;20191;-58
2022/09/20 02:05:07;;;;;;;1999.90;999.90;;;;;;;9.41;100.00;94723.38;6271533;22;20172;-59
2022/09/20 02:07:45;;;;;;;1999.90;999.90;;;;;;;9.40;100.00;94722.59;6230015;23;20169;-59
2022/09/20 02:10:35;;;;;;;1999.90;999.90;;;;;;;9.38;100.00;94711.34;6271767;22;20235;-59
2022/09/20 02:13:34;;;;;;;1999.90;999.90;;;;;;;9.37;100.00;94719.94;6271866;22;20253;-59
2022/09/20 02:16:10;;;;;;;1999.90;999.90;;;;;;;9.36;100.00;94721.88;6271366;22;20255;-59
2022/09/20 02:18:45;;;;;;;1999.90;999.90;;;;;;;9.37;100.00;94726.13;6271602;22;20676;-59
2022/09/20 02:21:34;;;;;;;1999.90;999.90;;;;;;;9.37;100.00;94722.66;6246180;23;20168;-59
2022/09/20 02:24:18;;;;;;;1999.90;999.90;;;;;;;9.33;100.00;94717.25;6272035;22;20156;-59
2022/09/20 02:27:25;;;;;;;1999.90;999.90;;;;;;;9.30;100.00;94717.31;6272047;22;20172;-60
2022/09/20 02:30:32;;;;;;;1999.90;999.90;;;;;;;9.27;100.00;94712.69;6227475;22;20184;-59
2022/09/20 02:33:33;;;;;;;1999.90;999.90;;;;;;;9.22;100.00;94722.06;6129720;23;20201;-59
2022/09/20 02:36:20;;;;;;;1999.90;999.90;;;;;;;9.20;100.00;94719.00;6246185;23;20166;-59
2022/09/20 02:39:01;;;;;;;1999.90;999.90;;;;;;;9.18;100.00;94721.34;6271085;22;20160;-59
2022/09/20 02:41:36;;;;;;;1999.90;999.90;;;;;;;9.19;100.00;94733.81;6246030;23;20158;-59
2022/09/20 02:44:40;;;;;;;1999.90;999.90;;;;;;;9.22;100.00;94726.78;6271893;22;20163;-59
2022/09/20 02:47:11;;;;;;;1999.90;999.90;;;;;;;9.25;100.00;94729.44;6129943;23;20315;-60
2022/09/20 02:49:47;;;;;;;1999.90;999.90;;;;;;;9.28;100.00;94731.34;6250500;22;20192;-59
2022/09/20 02:52:40;;;;;;;1999.90;999.90;;;;;;;9.30;100.00;94734.44;6271564;22;20194;-59
2022/09/20 02:55:16;;;;;;;1999.90;999.90;;;;;;;9.30;100.00;94736.38;6271839;22;20246;-59
2022/09/20 02:58:20;;;;;;;1999.90;999.90;;;;;;;9.28;100.00;94731.34;6271104;22;20203;-59
2022/09/20 03:00:53;;;;;;;1999.90;999.90;;;;;;;9.28;100.00;94741.47;6271167;22;20194;-59
2022/09/20 03:03:27;;;;;;;1999.90;999.90;;;;;;;9.31;100.00;94737.91;6245279;23;20172;-60
2022/09/20 03:06:08;;;;;;;1999.90;999.90;;;;;;;9.29;100.00;94738.31;6245877;23;20234;-59
2022/09/20 03:08:58;;;;;;;1999.90;999.90;;;;;;;9.26;100.00;94736.41;6270981;22;20621;-60
2022/09/20 03:11:31;;;;;;;1999.90;999.90;;;;;;;9.27;100.00;94731.75;6246101;23;20235;-59
2022/09/20 03:14:25;;;;;;;1999.90;999.90;;;;;;;9.29;100.00;94727.44;6246173;23;20243;-59
2022/09/20 03:17:02;;;;;;;1999.90;999.90;;;;;;;9.30;100.00;94730.94;6259655;22;20243;-59
2022/09/20 03:19:59;;;;;;;1999.90;999.90;;;;;;;9.30;100.00;94720.81;6271165;22;20175;-59
2022/09/20 03:22:36;;;;;;;1999.90;999.90;;;;;;;9.32;100.00;94728.56;6271581;22;20168;-61
2022/09/20 03:25:26;;;;;;;1999.90;999.90;;;;;;;9.32;100.00;94734.00;6271019;22;20214;-59
2022/09/20 03:28:02;;;;;;;1999.90;999.90;;;;;;;9.29;100.00;94730.16;6271781;22;20172;-58
2022/09/20 03:31:06;;;;;;;1999.90;999.90;;;;;;;9.27;100.00;94718.91;6245642;23;20171;-59
2022/09/20 03:33:53;;;;;;;1999.90;999.90;;;;;;;9.26;100.00;94722.81;6210189;23;20226;-59
2022/09/20 03:36:24;;;;;;;1999.90;999.90;;;;;;;9.23;100.00;94723.66;6271520;22;20198;-60
2022/09/20 03:39:05;;;;;;;1999.90;999.90;;;;;;;9.25;100.00;94721.25;6271249;22;20165;-59
2022/09/20 03:41:39;;;;;;;1999.90;999.90;;;;;;;9.25;100.00;94721.25;6270659;22;20180;-58
2022/09/20 03:44:22;;;;;;;1999.90;999.90;;;;;;;9.25;100.00;94720.50;6245357;23;20234;-59
2022/09/20 03:46:54;;;;;;;1999.90;999.90;;;;;;;9.24;100.00;94714.28;6270508;22;20234;-59
2022/09/20 03:49:45;;;;;;;1999.90;999.90;;;;;;;9.23;100.00;94712.75;6245388;23;20191;-60
2022/09/20 03:52:50;;;;;;;1999.90;999.90;;;;;;;9.26;100.00;94709.19;6271983;22;20225;-60
2022/09/20 03:55:21;;;;;;;1999.90;999.90;;;;;;;9.23;100.00;94707.31;6227428;22;20194;-59
2022/09/20 03:58:05;;;;;;;1999.90;999.90;;;;;;;9.24;100.00;94716.22;6271092;22;20195;-59
2022/09/20 04:01:03;;;;;;;1999.90;999.90;;;;;;;9.27;100.00;94701.78;6271375;22;20214;-59
2022/09/20 04:03:59;;;;;;;1999.90;999.90;;;;;;;9.27;100.00;94708.00;6270826;22;20169;-59
2022/09/20 04:06:36;;;;;;;1999.90;999.90;;;;;;;9.25;100.00;94696.00;6271079;22;20168;-59
2022/09/20 04:09:24;;;;;;;1999.90;999.90;;;;;;;9.27;100.00;94701.78;6270991;22;20278;-59
2022/09/20 04:12:00;;;;;;;1999.90;999.90;;;;;;;9.30;100.00;94703.69;6270796;22;20164;-60
2022/09/20 04:14:33;;;;;;;1999.90;999.90;;;;;;;9.31;100.00;94711.47;6272193;22;20153;-60
2022/09/20 04:17:21;;;;;;;1999.90;999.90;;;;;;;9.31;100.00;94714.19;6249029;23;20492;-60
2022/09/20 04:20:00;;;;;;;1999.90;999.90;;;;;;;9.31;100.00;94716.13;6248570;23;20179;-61
2022/09/20 04:22:28;;;;;;;1999.90;999.90;;;;;;;9.32;100.00;94715.72;6248809;23;20164;-61
2022/09/20 04:25:02;;;;;;;1999.90;999.90;;;;;;;9.33;100.00;94722.69;6273752;22;20240;-59
2022/09/20 04:27:39;;;;;;;1999.90;999.90;;;;;;;9.35;100.00;94733.97;6274238;22;20701;-60
2022/09/20 04:30:20;;;;;;;1999.90;999.90;;;;;;;9.31;100.00;94729.75;6274307;22;20207;-59
2022/09/20 04:32:54;;;;;;;1999.90;999.90;;;;;;;9.32;100.00;94732.06;6248990;23;20175;-60
2022/09/20 04:38:22;;;;;;;1999.90;999.90;;;;;;;9.27;100.00;94740.72;6249770;23;20614;-60
2022/09/20 04:41:10;;;;;;;1999.90;999.90;;;;;;;9.29;100.00;94738.31;6248559;22;20175;-60
2022/09/20 04:43:57;;;;;;;1999.90;999.90;;;;;;;9.26;100.00;94750.03;6273782;22;20172;-60
2022/09/20 04:46:48;;;;;;;1999.90;999.90;;;;;;;9.25;100.00;94740.34;6274386;22;20595;-59
2022/09/20 04:49:40;;;;;;;1999.90;999.90;;;;;;;9.19;100.00;94755.63;6273657;22;20180;-60
2022/09/20 04:52:36;;;;;;;1999.90;999.90;;;;;;;9.17;100.00;94749.78;6273792;22;20165;-61
2022/09/20 04:55:20;;;;;;;1999.90;999.90;;;;;;;9.17;100.00;94749.78;6248288;23;20169;-59
2022/09/20 04:57:48;;;;;;;1999.90;999.90;;;;;;;9.13;100.00;94751.78;6274297;22;20168;-59
2022/09/20 05:00:20;;;;;;;1999.90;999.90;;;;;;;9.16;100.00;94750.19;6273149;22;20168;-59
2022/09/20 05:03:09;;;;;;;1999.90;999.90;;;;;;;9.09;100.00;94756.50;6248228;23;20170;-60
2022/09/20 05:05:49;;;;;;;1999.90;999.90;;;;;;;9.10;100.00;94752.59;6274192;22;20178;-60
2022/09/20 05:08:32;;;;;;;1999.90;999.90;;;;;;;9.08;100.00;94754.97;6273822;22;20164;-60
2022/09/20 05:11:29;;;;;;;1999.90;999.90;;;;;;;9.02;100.00;94756.59;6274080;22;20576;-60
2022/09/20 05:14:02;;;;;;;1999.90;999.90;;;;;;;9.09;100.00;94756.50;6273437;22;20171;-60
2022/09/20 05:16:56;;;;;;;1999.90;999.90;;;;;;;9.12;100.00;94763.88;6273798;22;20234;-60
2022/09/20 05:19:49;;;;;;;1999.90;999.90;;;;;;;9.05;100.00;94760.47;6273925;22;20168;-60
2022/09/20 05:22:37;;;;;;;1999.90;999.90;;;;;;;9.13;100.00;94764.63;6274068;22;20503;-59
2022/09/20 05:25:08;;;;;;;1999.90;999.90;;;;;;;9.12;100.00;94774.78;6247450;23;20162;-59
2022/09/20 05:27:49;;;;;;;1999.90;999.90;;;;;;;9.11;100.00;94775.94;6271566;22;20168;-59
2022/09/20 05:30:40;;;;;;;1999.90;999.90;;;;;;;9.16;100.00;94772.78;6271267;22;20187;-59
2022/09/20 05:33:33;;;;;;;1999.90;999.90;;;;;;;9.22;100.00;94776.56;6272130;22;20164;-59
2022/09/20 05:36:18;;;;;;;1999.90;999.90;;;;;;;9.27;100.00;94775.34;6271221;22;20173;-59
2022/09/20 05:38:50;;;;;;;1999.90;999.90;;;;;;;9.30;100.00;94778.03;6271907;22;20168;-59
2022/09/20 05:41:53;;;;;;;1999.90;999.90;;;;;;;9.36;100.00;94779.09;6271499;22;20168;-59
2022/09/20 05:44:18;;;;;;;1999.90;999.90;;;;;;;9.39;100.00;94774.78;6269189;22;20164;-59
2022/09/20 05:46:56;;;;;;;1999.90;999.90;;;;;;;9.44;100.00;94777.06;6247117;22;20237;-59
2022/09/20 05:49:54;;;;;;;1999.90;999.90;;;;;;;9.53;100.00;94775.38;6271599;22;20188;-60
2022/09/20 05:52:29;;;;;;;1999.90;999.90;;;;;;;9.60;100.00;94778.00;6246010;23;20168;-59
2022/09/20 05:55:26;;;;;;;1999.90;999.90;;;;;;;9.68;100.00;94782.16;6246110;23;20164;-59
2022/09/20 05:58:10;;;;;;;1999.90;999.90;;;;;;;9.77;100.00;94785.13;6272149;22;20165;-60
2022/09/20 06:00:47;;;;;;;1999.90;999.90;;;;;;;9.83;100.00;94788.16;6271998;22;20204;-60
2022/09/20 06:03:35;;;;;;;1999.90;999.90;;;;;;;9.86;100.00;94793.56;6246288;23;20191;-59
2022/09/20 06:06:21;;;;;;;1999.90;999.90;;;;;;;9.84;100.00;94812.28;6271570;22;20207;-59
2022/09/20 06:08:56;;;;;;;1999.90;999.90;;;;;;;9.97;100.00;94810.53;6271776;22;20184;-60
2022/09/20 06:11:34;;;;;;;1999.90;999.90;;;;;;;10.00;100.00;94820.63;6272107;22;20153;-61
2022/09/20 06:14:09;;;;;;;1999.90;999.90;;;;;;;10.01;100.00;94827.63;6271109;22;20602;-59
2022/09/20 06:16:50;;;;;;;1999.90;999.90;;;;;;;9.95;100.00;94840.16;6245860;23;20169;-59
2022/09/20 06:19:27;;;;;;;1999.90;999.90;;;;;;;10.03;100.00;94840.84;6246100;23;20195;-59
2022/09/20 06:21:57;;;;;;;1999.90;999.90;;;;;;;10.00;100.00;94837.00;6246086;23;20536;-59
2022/09/20 06:24:45;;;;;;;1999.90;999.90;;;;;;;9.97;100.00;94835.09;6245339;22;20175;-60
2022/09/20 06:27:23;;;;;;;1999.90;999.90;;;;;;;10.01;100.00;94843.97;6189516;23;20591;-59
2022/09/20 06:29:54;;;;;;;1999.90;999.90;;;;;;;10.03;100.00;94841.59;6245953;23;20267;-59
2022/09/20 06:32:20;;;;;;;1999.90;999.90;;;;;;;9.96;100.00;94841.72;6245871;23;20503;-59
2022/09/20 06:34:46;;;;;;;1999.90;999.90;;;;;;;10.19;100.00;94845.72;6270860;22;20172;-59
2022/09/20 06:43:22;;;;;;;1999.90;999.90;;;;;;;10.33;100.00;94853.66;6246824;23;20168;-60
2022/09/20 06:45:47;;;;;;;1999.90;999.90;;;;;;;10.34;100.00;94855.22;6245412;22;20161;-59
2022/09/20 06:48:14;;;;;;;1999.90;999.90;;;;;;;10.33;100.00;94856.38;6270776;22;20176;-59
2022/09/20 06:50:44;;;;;;;1999.90;999.90;;;;;;;10.29;100.00;94858.38;6245650;22;20250;-59
2022/09/20 06:53:15;;;;;;;1999.90;999.90;;;;;;;10.34;100.00;94855.97;6245368;22;20215;-59
2022/09/20 06:55:42;;;;;;;1999.90;999.90;;;;;;;10.37;100.00;94859.84;6245866;23;20161;-59
2022/09/20 06:58:08;;;;;;;1999.90;999.90;;;;;;;10.52;100.00;94866.63;6271154;22;20172;-59
2022/09/20 07:00:34;;;;;;;1999.90;999.90;;;;;;;10.62;100.00;94865.63;6245607;23;20164;-59
2022/09/20 07:02:59;;;;;;;1999.90;999.90;;;;;;;10.71;100.00;94869.38;6271018;22;20164;-59
2022/09/20 07:05:25;;;;;;;1999.90;999.90;;;;;;;10.81;100.00;94867.66;6271395;22;20192;-60
2022/09/20 07:07:58;;;;;;;1999.90;999.90;;;;;;;10.81;100.00;94867.66;6271158;22;20161;-60
2022/09/20 07:10:26;;;;;;;1999.90;999.90;;;;;;;10.71;100.00;94860.44;6271042;22;20188;-59
2022/09/20 07:12:59;;;;;;;1999.90;999.90;;;;;;;10.72;100.00;94853.78;6245198;22;20173;-59
2022/09/20 07:15:29;;;;;;;1999.90;999.90;;;;;;;10.99;100.00;94868.09;6271672;22;20161;-60
2022/09/20 07:17:55;;;;;;;1999.90;999.90;;;;;;;11.07;100.00;94869.53;6245243;23;20501;-59
2022/09/20 07:20:21;;;;;;;1999.90;999.90;;;;;;;11.07;100.00;94869.53;6245680;23;20196;-57
2022/09/20 07:22:47;;;;;;;1999.90;999.90;;;;;;;11.14;100.00;94869.41;6245713;23;20161;-58
2022/09/20 07:25:12;;;;;;;1999.90;999.90;;;;;;;11.14;100.00;94874.88;6270992;22;20244;-59
2022/09/20 07:27:38;;;;;;;1999.90;999.90;;;;;;;10.90;100.00;94881.53;6245210;23;20473;-58
2022/09/20 07:30:05;;;;;;;1999.90;999.90;;;;;;;10.84;100.00;94883.19;6270600;22;20214;-56
2022/09/20 07:32:31;;;;;;;1999.90;999.90;;;;;;;11.02;100.00;94883.66;6245016;23;20196;-58
2022/09/20 07:34:56;;;;;;;1999.90;999.90;;;;;;;11.25;100.00;94881.66;6271004;22;20216;-58
2022/09/20 07:37:21;;;;;;;1999.90;999.90;;;;;;;11.35;100.00;94879.91;6271468;22;20173;-59
2022/09/20 07:39:47;;;;;;;1999.90;999.90;;;;;;;11.34;100.00;94881.88;6245813;22;20490;-57
2022/09/20 07:42:13;;;;;;;1999.90;999.90;;;;;;;11.49;100.00;94880.41;6271308;22;20172;-58
2022/09/20 07:44:41;;;;;;;1999.90;999.90;;;;;;;11.49;100.00;94885.09;6245310;23;20173;-60
2022/09/20 07:47:09;;;;;;;1999.90;999.90;;;;;;;11.34;100.00;94892.03;6245699;22;20245;-57
2022/09/20 07:49:34;;;;;;;1999.90;999.90;;;;;;;11.22;100.00;94892.66;6244891;23;20178;-59
2022/09/20 07:52:00;;;;;;;1999.90;999.90;;;;;;;11.11;100.00;94897.56;6245526;22;20168;-58
2022/09/20 07:54:29;;;;;;;1999.90;999.90;;;;;;;11.05;100.00;94905.47;6244887;23;20198;-59
2022/09/20 07:56:54;;;;;;;1999.90;999.90;;;;;;;10.87;100.00;94904.22;6270741;22;20173;-59
2022/09/20 07:59:20;;;;;;;1999.90;999.90;;;;;;;10.60;100.00;94906.25;6245516;23;20161;-59
2022/09/20 08:01:45;;;;;;;1999.90;999.90;;;;;;;10.71;100.00;94895.94;6270532;22;20160;-59
2022/09/20 08:04:11;;;;;;;1999.90;999.90;;;;;;;10.91;100.00;94899.47;6245628;23;20175;-60
2022/09/20 08:06:44;;;;;;;1999.90;999.90;;;;;;;11.07;100.00;94896.84;6245757;22;20171;-60
2022/09/20 08:09:11;;;;;;;1999.90;999.90;;;;;;;10.98;100.00;94882.97;6245476;22;20189;-60
2022/09/20 08:11:38;;;;;;;1999.90;999.90;;;;;;;11.12;100.00;94877.22;6244922;23;20185;-61
2022/09/20 08:14:04;;;;;;;1999.90;999.90;;;;;;;11.34;100.00;94889.31;6245086;23;20170;-61
2022/09/20 08:16:30;;;;;;;1999.90;999.90;;;;;;;11.36;100.00;94882.22;6244966;22;20157;-62
2022/09/20 08:18:58;;;;;;;1999.90;999.90;;;;;;;11.46;100.00;94880.47;6245390;23;20175;-61
2022/09/20 08:21:25;;;;;;;1999.90;999.90;;;;;;;11.30;100.00;94872.22;6245135;22;20165;-64
2022/09/20 08:23:52;;;;;;;1999.90;999.90;;;;;;;11.44;100.00;94877.41;6244840;22;20577;-61
2022/09/20 08:26:20;;;;;;;1999.90;999.90;;;;;;;11.58;100.00;94877.88;6245128;22;20175;-61
2022/09/20 08:28:50;;;;;;;1999.90;999.90;;;;;;;11.59;100.00;94878.66;6270463;22;20189;-62
2022/09/20 08:31:18;;;;;;;1999.90;999.90;;;;;;;11.59;100.00;94873.19;6270710;22;20188;-62
2022/09/20 08:33:45;;;;;;;1999.90;999.90;;;;;;;11.36;100.00;94881.47;6244651;23;20198;-62
2022/09/20 08:36:12;;;;;;;1999.90;999.90;;;;;;;11.26;100.00;94879.72;6244922;22;20201;-62
2022/09/20 08:38:38;;;;;;;1999.90;999.90;;;;;;;11.41;100.00;94879.00;6244977;22;20166;-62
2022/09/20 08:41:26;;;;;;;1999.90;999.90;;;;;;;11.42;100.00;94875.09;6245115;23;20162;-64
2022/09/20 08:44:01;;;;;;;1999.90;999.90;;;;;;;11.64;100.00;94870.75;6245159;23;20168;-61
2022/09/20 08:46:32;;;;;;;1999.90;999.90;;;;;;;11.94;100.00;94873.22;6270238;22;20165;-62
2022/09/20 08:48:58;;;;;;;1999.90;999.90;;;;;;;12.15;100.00;94861.03;6270686;22;20433;-62
2022/09/20 08:51:29;;;;;;;1999.90;999.90;;;;;;;12.16;100.00;94862.56;6244749;23;20213;-64
2022/09/20 08:53:56;;;;;;;1999.90;999.90;;;;;;;12.17;100.00;94858.66;6270910;22;20244;-61
2022/09/20 08:56:27;;;;;;;1999.90;999.90;;;;;;;12.06;100.00;94877.28;6244647;23;20495;-61
2022/09/20 08:58:53;;;;;;;1999.90;999.90;;;;;;;11.78;100.00;94875.16;6245310;23;20227;-60
2022/09/20 09:01:24;;;;;;;1999.90;999.90;;;;;;;11.72;100.00;94885.03;6245247;23;20165;-59
2022/09/20 09:03:52;;;;;;;1999.90;999.90;;;;;;;11.74;100.00;94882.66;6245909;22;20250;-59
2022/09/20 09:06:21;;;;;;;1999.90;999.90;;;;;;;11.83;100.00;94889.09;6272068;22;20580;-60
2022/09/20 09:08:52;;;;;;;1999.90;999.90;;;;;;;12.70;100.00;94874.56;6246008;22;20241;-60
2022/09/20 09:11:20;;;;;;;1999.90;999.90;;;;;;;12.83;100.00;94883.66;6246452;23;20178;-59
2022/09/20 09:14:54;;;;;;;1999.90;999.90;;;;;;;12.71;100.00;94884.31;6246313;23;20163;-59
2022/09/20 09:17:00;;;;;;;1999.90;999.90;;;;;;;12.69;100.00;94895.75;6239638;22;20659;-60
2022/09/20 09:19:28;;;;;;;1999.90;999.90;;;;;;;12.67;100.00;94894.59;6271362;22;20242;-61
2022/09/20 09:22:01;;;;;;;1999.90;999.90;;;;;;;12.66;100.00;94901.28;6246465;23;20241;-61
2022/09/20 09:24:27;;;;;;;1999.90;999.90;;;;;;;12.78;100.00;94895.88;6246213;22;20194;-60
2022/09/20 09:27:16;;;;;;;1999.90;999.90;;;;;;;13.05;100.00;94892.91;6245835;23;20236;-59
2022/09/20 09:29:55;;;;;;;1999.90;999.90;;;;;;;13.15;100.00;94894.59;6271091;22;20196;-60
2022/09/20 09:32:25;;;;;;;1999.90;999.90;;;;;;;13.03;100.00;94895.28;6245896;23;20196;-59
2022/09/20 09:34:50;;;;;;;1999.90;999.90;;;;;;;12.91;100.00;94898.72;6272056;22;20468;-60
2022/09/20 09:37:30;;;;;;;1999.90;999.90;;;;;;;12.79;100.00;94893.94;6271958;22;20199;-60
2022/09/20 09:40:25;;;;;;;1999.90;999.90;;;;;;;12.62;100.00;94895.13;6246750;23;20176;-59
2022/09/20 09:42:54;;;;;;;1999.90;999.90;;;;;;;12.63;100.00;94893.91;6246228;22;20245;-59
2022/09/20 09:45:25;;;;;;;1999.90;999.90;;;;;;;12.78;100.00;94895.09;6271180;22;20202;-59
2022/09/20 09:47:51;;;;;;;1999.90;999.90;;;;;;;13.61;100.00;94879.59;6272277;22;20168;-60
2022/09/20 09:50:26;;;;;;;1999.90;999.90;;;;;;;14.44;100.00;94873.63;6245602;22;20199;-59
2022/09/20 09:53:21;;;;;;;1999.90;999.90;;;;;;;15.39;100.00;94854.72;6245674;23;20167;-60
2022/09/20 09:56:12;;;;;;;1999.90;999.90;;;;;;;15.51;100.00;94845.63;6246416;22;20192;-60
2022/09/20 09:58:57;;;;;;;1999.90;999.90;;;;;;;15.40;100.00;94831.47;6271191;22;20252;-59
2022/09/20 10:01:40;;;;;;;1999.90;999.90;;;;;;;14.89;100.00;94835.59;6270889;22;20168;-60
2022/09/20 10:04:05;;;;;;;1999.90;999.90;;;;;;;14.32;100.00;94846.94;6246410;23;20157;-59
2022/09/20 10:06:44;;;;;;;1999.90;999.90;;;;;;;14.05;100.00;94860.28;6271008;22;20179;-60
2022/09/20 10:09:28;;;;;;;1999.90;999.90;;;;;;;13.77;100.00;94869.34;6245719;23;20181;-59
2022/09/20 10:12:38;;;;;;;1999.90;999.90;;;;;;;13.67;100.00;94862.19;6271347;22;20169;-60
2022/09/20 10:15:16;;;;;;;1999.90;999.90;;;;;;;13.98;100.00;94857.75;6271707;22;20173;-59
2022/09/20 10:18:24;;;;;;;1999.90;999.90;;;;;;;14.06;100.00;94856.31;6246119;23;20168;-59
2022/09/20 10:21:31;;;;;;;1999.90;999.90;;;;;;;14.19;100.00;94848.84;6245902;23;20169;-59
2022/09/20 10:24:15;;;;;;;1999.90;999.90;;;;;;;14.00;100.00;94847.09;6245554;23;20169;-58
2022/09/20 10:27:10;;;;;;;1999.90;999.90;;;;;;;14.10;100.00;94848.75;6245386;23;20200;-59
2022/09/20 10:30:00;;;;;;;1999.90;999.90;;;;;;;14.03;100.00;94848.19;6271812;22;20188;-59
2022/09/20 10:32:50;;;;;;;1999.90;999.90;;;;;;;14.14;100.00;94843.94;6271877;22;20165;-59
2022/09/20 10:35:41;;;;;;;1999.90;999.90;;;;;;;14.16;100.00;94841.50;6271747;22;20173;-59
2022/09/20 10:38:35;;;;;;;1999.90;999.90;;;;;;;13.76;100.00;94861.56;6271569;22;20168;-58
2022/09/20 10:44:19;;;;;;;1999.90;999.90;;;;;;;13.97;100.00;94858.16;6247034;23;20238;-58
2022/09/20 10:46:55;;;;;;;1999.90;999.90;;;;;;;14.10;100.00;94854.25;6270942;22;20527;-59
2022/09/20 10:49:42;;;;;;;1999.90;999.90;;;;;;;14.59;100.00;94847.22;6245820;23;20242;-56
2022/09/20 10:52:26;;;;;;;1999.90;999.90;;;;;;;15.31;100.00;94828.66;6270983;22;20169;-58
2022/09/20 10:55:03;;;;;;;1999.90;999.90;;;;;;;15.32;100.00;94827.41;6271134;22;20165;-59
2022/09/20 10:57:41;;;;;;;1999.90;999.90;;;;;;;15.15;100.00;94828.06;6271765;22;20248;-59
2022/09/20 11:00:15;;;;;;;1999.90;999.90;;;;;;;15.18;100.00;94827.91;6271547;22;20169;-59
2022/09/20 11:02:43;;;;;;;1999.90;999.90;;;;;;;15.03;100.00;94828.84;6271919;22;20176;-59
2022/09/20 11:05:31;;;;;;;1999.90;999.90;;;;;;;14.89;100.00;94835.59;6271083;22;20170;-58
2022/09/20 11:08:05;;;;;;;1999.90;999.90;;;;;;;14.73;100.00;94840.47;6245530;23;20169;-58
2022/09/20 11:10:52;;;;;;;1999.90;999.90;;;;;;;14.89;100.00;94827.34;6244633;23;20291;-59
2022/09/20 11:13:36;;;;;;;1999.90;999.90;;;;;;;15.14;100.00;94815.50;6271402;22;20200;-56
2022/09/20 11:16:15;;;;;;;1999.90;999.90;;;;;;;15.24;100.00;94801.38;6270640;22;20676;-58
2022/09/20 11:18:44;;;;;;;1999.90;999.90;;;;;;;15.34;100.00;94778.19;6270783;22;20161;-58
2022/09/20 11:21:24;;;;;;;1999.90;999.90;;;;;;;15.35;100.00;94773.47;6270881;22;20308;-58
2022/09/20 11:24:13;;;;;;;1999.90;999.90;;;;;;;15.50;100.00;94778.03;6244550;23;20219;-58
2022/09/20 11:26:50;;;;;;;1999.90;999.90;;;;;;;15.56;100.00;94769.97;6245863;23;20173;-59
2022/09/20 11:29:34;;;;;;;1999.90;999.90;;;;;;;15.52;100.00;94763.84;6245806;23;20176;-60
2022/09/20 11:32:17;;;;;;;1999.90;999.90;;;;;;;15.39;100.00;94763.91;6271316;22;20172;-58
2022/09/20 11:35:18;;;;;;;1999.90;999.90;;;;;;;15.38;100.00;94778.91;6245289;23;20188;-59
2022/09/20 11:37:50;;;;;;;1999.90;999.90;;;;;;;15.44;100.00;95084.56;6245591;22;20172;-59
2022/09/20 11:40:21;;;;;;;1999.90;999.90;;;;;;;15.57;100.00;95415.63;6245875;23;20224;-59
2022/09/20 11:42:48;;;;;;;1999.90;999.90;;;;;;;15.71;100.00;95548.22;6245414;23;20175;-59
2022/09/20 11:45:13;;;;;;;1999.90;999.90;;;;;;;15.82;100.00;95595.53;6245288;23;20176;-59
2022/09/20 11:47:48;;;;;;;1999.90;999.90;;;;;;;15.88;100.00;95602.03;6271198;22;20161;-59